Aérodrome :
LOGIN :

S'inscrire | Disclaimer

   EN    FR    IT 

 










Légende :    VFR   VFR Marginal   IFR   IFR Intensif   IFR Très Intensif
Visi : 
Plafond : 
>= 8 km
>= 3000ft
5 à 8 km
1000 à 3000 ft
1500m à 5 km
500 à 1000 ft
800 à 1500m
200 à 500 ft
< 800m
< 200 ft
Symboles :   Orages  Brouillard  Fortes neiges  Fortes précipitations  Vent > 20 kt
SIGMETs :   Divers  Orages  Givrage  Turbulence  Onde Orograph.  Cendres Volcan.







- Altitude de l'aérodrome : 39 ft
- Code IATA : TRS


LIPQ - Friuli Venezia Giulia Apt. Trieste

DERNIER METAR :
  • 210420Z VRB02KT 6000 -RA FEW010 SCT020 BKN040 13/13 Q1007 RERA

METARs EXPIRÉS :
  • 210350Z AUTO VRB02KT 9000 RA OVC018/// 13/13 Q1007
  • 210320Z AUTO 23005KT 9999 RA FEW011/// SCT033/// BKN037/// 13/12 Q1007
  • 210250Z AUTO 19005KT 140V230 8000 RA FEW010/// OVC027/// 14/14 Q1007
  • 210220Z AUTO 15005KT 9999 -RA FEW025/// OVC037/// 14/13 Q1007
  • 210150Z AUTO 15005KT 9999 -RA BKN027/// OVC070/// 14/13 Q1007

TAF TAF LIPQ
Valide du 21 à 00h jusqu'au 22 à 00h UTC


202300Z 2100/2124 20010KT 9999 BKN030
TEMPO 2100/2106 RA
TEMPO 2114/2118 SHRA
Pas de NOTAMs connus pour ce terrain.



MET'MAP, la Météo Aéronautique d'un coup d'oeil ! - Copyright ORBIFLY Décembre 2007 - Disclaimer

ORBIFLY MET'MAP TEAM :

Programmation & Développement : Alexandra Zaïnal
Conception & Développement : Baudouin d'Aumeries
Co-Programmation & Développement : Marc-Olivier Méhu
Soutien technique & logistique : Manuel Goepfert

Contact : metmap@orbifly.com




SOURCES & CREDITS :

   NOAA